createdAt,value
2018-09-02T00:00:49.798Z,17.20
2018-09-02T00:03:19.143Z,17.20
2018-09-02T00:05:48.416Z,17.20
2018-09-02T00:08:17.752Z,17.20
2018-09-02T00:10:46.829Z,17.20
2018-09-02T00:13:16.110Z,17.20
2018-09-02T00:15:45.468Z,17.20
2018-09-02T00:18:15.204Z,17.10
2018-09-02T00:20:44.267Z,17.00
2018-09-02T00:23:14.111Z,17.10
2018-09-02T00:25:44.611Z,17.10
2018-09-02T00:28:13.956Z,17.10
2018-09-02T00:30:43.335Z,17.00
2018-09-02T00:33:12.525Z,17.10
2018-09-02T00:35:41.838Z,17.10
2018-09-02T00:38:11.191Z,17.10
2018-09-02T00:40:40.621Z,17.10
2018-09-02T00:43:11.049Z,17.10
2018-09-02T00:45:40.373Z,17.00
2018-09-02T00:48:09.890Z,17.00
2018-09-02T00:50:39.222Z,17.00
2018-09-02T00:53:08.578Z,17.00
2018-09-02T00:55:37.961Z,17.00
2018-09-02T00:58:07.405Z,17.00
2018-09-02T01:00:36.819Z,17.10
2018-09-02T01:03:06.187Z,17.10
2018-09-02T01:05:35.632Z,17.00
2018-09-02T01:08:04.989Z,17.10
2018-09-02T01:10:34.332Z,17.10
2018-09-02T01:13:03.623Z,17.10
2018-09-02T01:15:32.910Z,17.10
2018-09-02T01:18:02.268Z,17.00
2018-09-02T01:20:31.723Z,17.10
2018-09-02T01:23:01.079Z,17.00
2018-09-02T01:25:30.399Z,17.00
2018-09-02T01:27:59.705Z,17.00
2018-09-02T01:30:29.005Z,17.10
2018-09-02T01:32:58.093Z,17.10
2018-09-02T01:35:34.409Z,17.00
2018-09-02T01:38:05.191Z,17.00
2018-09-02T01:40:35.427Z,16.90
2018-09-02T01:43:05.304Z,17.00
2018-09-02T01:45:34.832Z,17.00
2018-09-02T01:48:04.335Z,17.00
2018-09-02T01:50:33.602Z,17.10
2018-09-02T01:53:02.913Z,16.80
2018-09-02T01:55:32.245Z,17.00
2018-09-02T01:58:01.593Z,16.90
2018-09-02T02:00:30.945Z,17.00
2018-09-02T02:03:00.186Z,17.00
2018-09-02T02:05:29.564Z,17.00
2018-09-02T02:07:58.836Z,16.90
2018-09-02T02:10:28.346Z,17.00
2018-09-02T02:12:58.642Z,16.90
2018-09-02T02:15:27.875Z,16.90
2018-09-02T02:17:57.160Z,17.00
2018-09-02T02:20:27.412Z,16.90
2018-09-02T02:22:56.700Z,17.00
2018-09-02T02:25:26.044Z,16.90
2018-09-02T02:27:55.479Z,16.80
2018-09-02T02:30:24.775Z,16.90
2018-09-02T02:32:53.866Z,17.00
2018-09-02T02:35:23.153Z,16.90
2018-09-02T02:37:52.206Z,16.90
2018-09-02T02:40:21.523Z,16.90
2018-09-02T02:42:50.782Z,16.90
2018-09-02T02:45:20.155Z,16.90
2018-09-02T02:47:49.521Z,16.90
2018-09-02T02:50:18.500Z,16.90
2018-09-02T02:52:52.897Z,16.90
2018-09-02T02:55:22.367Z,16.90
2018-09-02T02:57:51.677Z,16.90
2018-09-02T03:00:20.963Z,16.90
2018-09-02T03:02:50.309Z,16.90
2018-09-02T03:05:19.625Z,16.80
2018-09-02T03:07:49.062Z,16.80
2018-09-02T03:10:18.570Z,16.80
2018-09-02T03:12:47.888Z,16.80
2018-09-02T03:15:17.710Z,16.80
2018-09-02T03:17:46.952Z,16.90
2018-09-02T03:20:16.287Z,16.80
2018-09-02T03:22:45.627Z,16.80
2018-09-02T03:25:14.985Z,16.80
2018-09-02T03:27:44.042Z,16.80
2018-09-02T03:30:14.057Z,16.80
2018-09-02T03:32:43.431Z,16.80
2018-09-02T03:35:12.767Z,16.80
2018-09-02T03:37:42.020Z,16.80
2018-09-02T03:40:11.734Z,16.80
2018-09-02T03:42:41.075Z,16.80
2018-09-02T03:45:10.442Z,16.80
2018-09-02T03:47:39.771Z,16.70
2018-09-02T03:50:09.108Z,16.80
2018-09-02T03:52:38.712Z,16.80
2018-09-02T03:55:08.020Z,16.80
2018-09-02T03:57:37.310Z,16.80
2018-09-02T04:00:06.984Z,16.80
2018-09-02T04:02:36.321Z,16.80
2018-09-02T04:05:05.960Z,16.80
2018-09-02T04:07:35.114Z,16.80
2018-09-02T04:10:04.290Z,16.80
2018-09-02T04:12:33.423Z,16.70
2018-09-02T04:15:02.602Z,16.70
2018-09-02T04:17:31.827Z,16.80
2018-09-02T04:20:01.094Z,16.80
2018-09-02T04:22:30.386Z,16.70
2018-09-02T04:24:59.746Z,16.70
2018-09-02T04:27:28.980Z,16.70
2018-09-02T04:29:58.322Z,16.70
2018-09-02T04:32:27.646Z,16.70
2018-09-02T04:34:56.985Z,16.70
2018-09-02T04:37:26.287Z,16.70
2018-09-02T04:39:55.660Z,16.70
2018-09-02T04:42:24.755Z,16.80
2018-09-02T04:44:54.026Z,16.80
2018-09-02T04:47:23.393Z,16.70
2018-09-02T04:49:52.518Z,16.70
2018-09-02T04:52:21.790Z,16.80
2018-09-02T04:54:50.720Z,16.70
2018-09-02T04:57:20.028Z,16.60
2018-09-02T04:59:49.130Z,16.70
2018-09-02T05:02:18.395Z,16.80
2018-09-02T05:04:47.710Z,16.80
2018-09-02T05:07:17.065Z,16.80
2018-09-02T05:09:46.393Z,16.70
2018-09-02T05:12:15.741Z,16.70
2018-09-02T05:14:45.129Z,16.60
2018-09-02T05:17:14.479Z,16.60
2018-09-02T05:19:43.843Z,16.60
2018-09-02T05:22:13.263Z,16.70
2018-09-02T05:24:42.746Z,16.70
2018-09-02T05:27:12.137Z,16.70
2018-09-02T05:29:41.206Z,16.70
2018-09-02T05:32:10.504Z,16.60
2018-09-02T05:34:39.840Z,16.60
2018-09-02T05:37:09.122Z,16.70
2018-09-02T05:39:38.554Z,16.70
2018-09-02T05:42:07.878Z,16.60
2018-09-02T05:44:37.118Z,16.60
2018-09-02T05:47:07.772Z,16.70
2018-09-02T05:49:36.747Z,16.60
2018-09-02T05:52:06.101Z,16.60
2018-09-02T05:54:35.534Z,16.50
2018-09-02T05:57:04.896Z,16.60
2018-09-02T05:59:34.443Z,16.60
2018-09-02T06:02:04.178Z,16.50
2018-09-02T06:04:33.534Z,16.50
2018-09-02T06:07:02.877Z,16.30
2018-09-02T06:09:32.820Z,16.40
2018-09-02T06:12:03.138Z,16.20
2018-09-02T06:14:32.201Z,16.30
2018-09-02T06:17:01.474Z,16.30
2018-09-02T06:19:31.218Z,16.20
2018-09-02T06:22:00.456Z,16.10
2018-09-02T06:24:29.796Z,16.10
2018-09-02T06:26:59.900Z,16.10
2018-09-02T06:29:29.216Z,16.00
2018-09-02T06:31:58.509Z,16.00
2018-09-02T06:34:27.858Z,16.00
2018-09-02T06:36:57.199Z,16.00
2018-09-02T06:39:27.298Z,16.00
2018-09-02T06:41:56.666Z,16.00
2018-09-02T06:44:26.004Z,16.00
2018-09-02T06:46:55.256Z,16.00
2018-09-02T06:49:24.275Z,16.00
2018-09-02T06:51:53.567Z,15.80
2018-09-02T06:54:27.766Z,15.90
2018-09-02T06:56:57.196Z,15.90
2018-09-02T06:59:26.560Z,15.80
2018-09-02T07:01:55.824Z,15.70
2018-09-02T07:04:24.915Z,15.80
2018-09-02T07:06:54.311Z,15.70
2018-09-02T07:09:23.379Z,15.70
2018-09-02T07:11:52.845Z,15.70
2018-09-02T07:14:22.250Z,15.60
2018-09-02T07:16:51.657Z,15.60
2018-09-02T07:19:21.162Z,15.60
2018-09-02T07:21:50.548Z,15.60
2018-09-02T07:24:20.629Z,15.60
2018-09-02T07:26:49.728Z,15.60
2018-09-02T07:29:19.062Z,15.60
2018-09-02T07:31:48.295Z,15.60
2018-09-02T07:34:17.347Z,15.60
2018-09-02T07:36:46.320Z,15.70
2018-09-02T07:39:15.676Z,15.50
2018-09-02T07:41:44.884Z,15.50
2018-09-02T07:44:14.298Z,15.60
2018-09-02T07:46:43.611Z,15.50
2018-09-02T07:49:12.693Z,15.50
2018-09-02T07:51:42.055Z,15.60
2018-09-02T07:54:11.411Z,15.40
2018-09-02T07:56:40.756Z,15.40
2018-09-02T07:59:10.163Z,15.30
2018-09-02T08:01:39.195Z,15.50
2018-09-02T08:04:08.573Z,15.40
2018-09-02T08:06:37.941Z,15.30
2018-09-02T08:09:08.715Z,15.20
2018-09-02T08:11:37.959Z,15.10
2018-09-02T08:14:07.232Z,15.10
2018-09-02T08:16:37.119Z,15.10
2018-09-02T08:19:05.958Z,15.30
2018-09-02T08:21:35.237Z,15.30
2018-09-02T08:24:04.521Z,15.30
2018-09-02T08:26:33.782Z,15.20
2018-09-02T08:29:03.040Z,15.20
2018-09-02T08:31:32.079Z,15.40
2018-09-02T08:34:01.171Z,15.30
2018-09-02T08:36:30.566Z,15.30
2018-09-02T08:38:59.956Z,15.30
2018-09-02T08:41:29.244Z,15.30
2018-09-02T08:43:58.497Z,15.30
2018-09-02T08:46:27.568Z,15.40
2018-09-02T08:48:56.891Z,15.10
2018-09-02T08:51:26.166Z,15.30
2018-09-02T08:53:55.194Z,15.80
2018-09-02T08:56:24.664Z,15.10
2018-09-02T08:58:53.988Z,15.00
2018-09-02T09:01:23.443Z,15.10
2018-09-02T09:03:52.773Z,15.00
2018-09-02T09:06:22.204Z,15.10
2018-09-02T09:08:51.511Z,15.10
2018-09-02T09:11:20.678Z,15.20
2018-09-02T09:13:49.681Z,15.30
2018-09-02T09:16:18.757Z,15.40
2018-09-02T09:18:48.041Z,15.20
2018-09-02T09:21:17.367Z,15.00
2018-09-02T09:23:46.697Z,15.20
2018-09-02T09:26:15.824Z,15.40
2018-09-02T09:28:45.274Z,15.30
2018-09-02T09:31:14.685Z,15.40
2018-09-02T09:33:44.042Z,15.40
2018-09-02T09:36:14.028Z,15.30
2018-09-02T09:38:43.285Z,15.30
2018-09-02T09:41:12.642Z,15.50
2018-09-02T09:43:41.917Z,15.50
2018-09-02T09:46:11.054Z,15.60
2018-09-02T09:48:40.378Z,15.60
2018-09-02T09:51:09.764Z,15.60
2018-09-02T09:53:39.076Z,15.80
2018-09-02T09:56:08.470Z,15.80
2018-09-02T09:58:37.571Z,15.90
2018-09-02T10:01:07.302Z,15.80
2018-09-02T10:03:36.335Z,15.90
2018-09-02T10:06:05.807Z,15.90
2018-09-02T10:08:35.060Z,15.90
2018-09-02T10:11:04.076Z,15.90
2018-09-02T10:13:33.448Z,15.90
2018-09-02T10:16:02.850Z,16.00
2018-09-02T10:18:32.153Z,16.00
2018-09-02T10:21:01.522Z,16.10
2018-09-02T10:23:30.874Z,16.20
2018-09-02T10:26:00.208Z,16.30
2018-09-02T10:28:29.623Z,16.40
2018-09-02T10:30:58.660Z,16.50
2018-09-02T10:33:28.099Z,16.40
2018-09-02T10:35:57.435Z,16.40
2018-09-02T10:38:26.550Z,16.40
2018-09-02T10:40:55.623Z,16.50
2018-09-02T10:43:24.926Z,16.40
2018-09-02T10:45:54.201Z,16.30
2018-09-02T10:48:23.486Z,16.30
2018-09-02T10:50:52.961Z,16.30
2018-09-02T10:53:22.012Z,16.50
2018-09-02T10:55:51.364Z,16.40
2018-09-02T10:58:20.510Z,16.40
2018-09-02T11:00:49.535Z,16.40
2018-09-02T11:03:18.817Z,16.30
2018-09-02T11:05:48.138Z,16.30
2018-09-02T11:08:17.235Z,16.40
2018-09-02T11:10:46.604Z,16.40
2018-09-02T11:13:16.120Z,16.40
2018-09-02T11:15:45.624Z,16.50
2018-09-02T11:18:15.044Z,16.60
2018-09-02T11:20:44.427Z,16.60
2018-09-02T11:23:13.913Z,16.60
2018-09-02T11:25:43.299Z,16.60
2018-09-02T11:28:13.149Z,16.70
2018-09-02T11:30:42.424Z,16.80
2018-09-02T11:33:11.484Z,16.80
2018-09-02T11:35:40.513Z,16.80
2018-09-02T11:38:09.520Z,16.90
2018-09-02T11:40:38.544Z,16.80
2018-09-02T11:43:07.887Z,16.80
2018-09-02T11:45:37.077Z,16.80
2018-09-02T11:48:06.409Z,16.80
2018-09-02T11:50:35.479Z,16.80
2018-09-02T11:53:04.891Z,16.50
2018-09-02T11:55:34.213Z,16.80
2018-09-02T11:58:03.473Z,16.90
2018-09-02T12:00:32.503Z,17.10
2018-09-02T12:03:01.806Z,17.10
2018-09-02T12:05:31.199Z,17.10
2018-09-02T12:08:01.245Z,17.00
2018-09-02T12:10:30.636Z,17.00
2018-09-02T12:13:00.389Z,17.00
2018-09-02T12:15:29.489Z,17.00
2018-09-02T12:17:58.503Z,17.10
2018-09-02T12:20:27.518Z,17.10
2018-09-02T12:22:56.827Z,17.00
2018-09-02T12:25:26.147Z,17.10
2018-09-02T12:27:55.472Z,17.10
2018-09-02T12:30:24.742Z,17.20
2018-09-02T12:32:54.065Z,17.10
2018-09-02T12:35:23.381Z,17.10
2018-09-02T12:37:52.690Z,17.10
2018-09-02T12:40:22.020Z,17.00
2018-09-02T12:42:51.387Z,17.10
2018-09-02T12:45:20.714Z,17.10
2018-09-02T12:47:50.141Z,17.00
2018-09-02T12:50:19.364Z,17.10
2018-09-02T12:52:48.647Z,16.80
2018-09-02T12:55:18.183Z,17.10
2018-09-02T12:57:47.448Z,17.20
2018-09-02T13:00:16.555Z,17.30
2018-09-02T13:02:45.657Z,17.20
2018-09-02T13:05:21.676Z,17.30
2018-09-02T13:07:50.700Z,17.30
2018-09-02T13:10:20.237Z,17.20
2018-09-02T13:12:49.663Z,17.20
2018-09-02T13:15:18.895Z,17.20
2018-09-02T13:17:47.952Z,17.30
2018-09-02T13:20:17.249Z,17.20
2018-09-02T13:22:46.473Z,17.40
2018-09-02T13:25:15.771Z,17.50
2018-09-02T13:27:44.834Z,17.50
2018-09-02T13:30:14.247Z,17.30
2018-09-02T13:32:43.593Z,17.40
2018-09-02T13:35:13.092Z,17.50
2018-09-02T13:37:42.541Z,17.60
2018-09-02T13:40:12.172Z,17.60
2018-09-02T13:42:41.492Z,17.50
2018-09-02T13:45:10.859Z,17.50
2018-09-02T13:47:40.226Z,17.60
2018-09-02T13:50:09.656Z,17.70
2018-09-02T13:52:38.955Z,17.70
2018-09-02T13:55:08.244Z,17.50
2018-09-02T13:57:47.682Z,17.50
2018-09-02T14:00:17.608Z,17.70
2018-09-02T14:02:46.737Z,17.70
2018-09-02T14:05:16.113Z,17.70
2018-09-02T14:07:45.223Z,17.60
2018-09-02T14:10:14.210Z,17.70
2018-09-02T14:12:44.096Z,17.80
2018-09-02T14:15:14.426Z,17.50
2018-09-02T14:17:44.302Z,17.60
2018-09-02T14:20:13.642Z,17.70
2018-09-02T14:22:43.002Z,17.80
2018-09-02T14:25:12.459Z,17.80
2018-09-02T14:27:41.886Z,17.80
2018-09-02T14:30:11.362Z,17.90
2018-09-02T14:32:40.675Z,17.60
2018-09-02T14:35:10.077Z,17.70
2018-09-02T14:37:39.488Z,17.80
2018-09-02T14:40:08.904Z,17.80
2018-09-02T14:42:38.232Z,17.80
2018-09-02T14:45:07.674Z,17.90
2018-09-02T14:47:37.017Z,17.90
2018-09-02T14:50:06.375Z,17.80
2018-09-02T14:52:35.677Z,17.90
2018-09-02T14:55:04.873Z,17.90
2018-09-02T14:57:34.180Z,17.90
2018-09-02T15:00:03.487Z,17.90
2018-09-02T15:02:32.864Z,17.80
2018-09-02T15:05:02.388Z,17.80
2018-09-02T15:07:31.825Z,17.80
2018-09-02T15:10:01.182Z,17.80
2018-09-02T15:12:30.258Z,17.90
2018-09-02T15:14:59.632Z,17.70
2018-09-02T15:17:28.860Z,17.80
2018-09-02T15:19:58.076Z,17.90
2018-09-02T15:22:27.092Z,17.90
2018-09-02T15:24:56.443Z,17.90
2018-09-02T15:27:25.823Z,17.90
2018-09-02T15:29:55.192Z,18.00
2018-09-02T15:32:24.567Z,17.70
2018-09-02T15:34:53.874Z,17.90
2018-09-02T15:37:23.156Z,17.90
2018-09-02T15:39:54.847Z,18.10
2018-09-02T15:42:24.211Z,18.20
2018-09-02T15:44:54.372Z,18.10
2018-09-02T15:47:23.768Z,18.40
2018-09-02T15:49:52.861Z,18.50
2018-09-02T15:52:22.076Z,18.50
2018-09-02T15:54:51.509Z,18.40
2018-09-02T15:57:20.877Z,18.40
2018-09-02T15:59:50.314Z,18.50
2018-09-02T16:02:19.641Z,18.30
2018-09-02T16:04:48.703Z,18.40
2018-09-02T16:07:17.833Z,18.50
2018-09-02T16:09:47.186Z,18.50
2018-09-02T16:12:16.421Z,18.70
2018-09-02T16:14:45.667Z,18.60
2018-09-02T16:17:14.858Z,18.50
2018-09-02T16:19:44.172Z,18.60
2018-09-02T16:22:13.169Z,18.70
2018-09-02T16:24:42.508Z,18.40
2018-09-02T16:27:11.815Z,18.50
2018-09-02T16:29:41.342Z,18.60
2018-09-02T16:32:20.101Z,18.70
2018-09-02T16:34:49.877Z,18.70
2018-09-02T16:37:19.199Z,18.70
2018-09-02T16:39:48.631Z,18.60
2018-09-02T16:42:18.099Z,18.80
2018-09-02T16:44:47.318Z,18.70
2018-09-02T16:47:30.032Z,18.70
2018-09-02T16:49:59.377Z,18.70
2018-09-02T16:52:28.505Z,18.80
2018-09-02T16:54:57.645Z,18.70
2018-09-02T16:57:27.047Z,18.60
2018-09-02T16:59:56.450Z,18.60
2018-09-02T17:02:25.576Z,18.50
2018-09-02T17:04:59.091Z,18.60
2018-09-02T17:07:29.029Z,18.70
2018-09-02T17:10:14.680Z,18.60
2018-09-02T17:15:43.708Z,18.60
2018-09-02T17:18:13.085Z,18.60
2018-09-02T17:20:44.911Z,18.70
2018-09-02T17:23:14.894Z,18.60
2018-09-02T17:25:53.385Z,18.60
2018-09-02T17:28:22.708Z,18.50
2018-09-02T17:30:51.931Z,18.60
2018-09-02T17:33:25.443Z,18.60
2018-09-02T17:35:54.584Z,18.60
2018-09-02T17:38:23.969Z,18.50
2018-09-02T17:40:53.666Z,18.50
2018-09-02T17:43:23.277Z,18.40
2018-09-02T17:46:06.547Z,18.50
2018-09-02T17:48:35.919Z,18.50
2018-09-02T17:51:05.411Z,18.50
2018-09-02T17:53:34.804Z,18.40
2018-09-02T17:56:03.844Z,18.60
2018-09-02T17:58:33.206Z,18.50
2018-09-02T18:01:02.652Z,18.40
2018-09-02T18:03:31.841Z,18.50
2018-09-02T18:06:01.062Z,18.60
2018-09-02T18:08:30.505Z,18.50
2018-09-02T18:10:59.845Z,18.50
2018-09-02T18:13:29.133Z,18.50
2018-09-02T18:15:58.526Z,18.40
2018-09-02T18:18:27.659Z,18.60
2018-09-02T18:20:57.625Z,18.50
2018-09-02T18:23:27.091Z,18.50
2018-09-02T18:25:56.471Z,18.50
2018-09-02T18:28:28.768Z,18.50
2018-09-02T18:30:58.126Z,18.50
2018-09-02T18:33:27.463Z,18.50
2018-09-02T18:35:56.887Z,18.50
2018-09-02T18:38:26.451Z,18.50
2018-09-02T18:40:55.578Z,18.50
2018-09-02T18:43:24.940Z,18.40
2018-09-02T18:45:54.265Z,18.40
2018-09-02T18:48:23.349Z,18.40
2018-09-02T18:50:52.634Z,18.40
2018-09-02T18:53:21.949Z,18.30
2018-09-02T18:56:01.268Z,18.30
2018-09-02T18:58:30.661Z,18.20
2018-09-02T19:01:01.721Z,18.20
2018-09-02T19:03:30.780Z,18.30
2018-09-02T19:06:00.601Z,18.20
2018-09-02T19:08:29.952Z,18.20
2018-09-02T19:10:59.011Z,18.20
2018-09-02T19:13:28.386Z,18.20
2018-09-02T19:15:57.709Z,18.10
2018-09-02T19:18:27.009Z,18.20
2018-09-02T19:20:56.456Z,18.10
2018-09-02T19:23:25.606Z,18.20
2018-09-02T19:28:56.159Z,18.10
2018-09-02T19:34:39.142Z,18.10
2018-09-02T19:37:08.636Z,18.10
2018-09-02T19:39:38.013Z,18.20
2018-09-02T19:42:13.867Z,18.20
2018-09-02T19:44:43.161Z,18.30
2018-09-02T19:47:12.196Z,18.20
2018-09-02T19:49:41.768Z,18.20
2018-09-02T19:52:11.353Z,18.20
2018-09-02T19:54:40.531Z,18.20
2018-09-02T19:57:09.597Z,18.20
2018-09-02T19:59:38.928Z,18.10
2018-09-02T20:02:08.314Z,18.10
2018-09-02T20:04:37.774Z,18.10
2018-09-02T20:07:07.104Z,18.10
2018-09-02T20:09:36.208Z,18.10
2018-09-02T20:12:05.466Z,18.10
2018-09-02T20:14:34.808Z,18.10
2018-09-02T20:17:04.166Z,18.10
2018-09-02T20:19:33.986Z,18.10
2018-09-02T20:22:03.454Z,18.10
2018-09-02T20:24:32.535Z,18.10
2018-09-02T20:27:01.698Z,18.20
2018-09-02T20:29:30.792Z,18.10
2018-09-02T20:32:00.201Z,18.10
2018-09-02T20:34:29.525Z,18.10
2018-09-02T20:36:58.684Z,18.10
2018-09-02T20:39:27.756Z,18.10
2018-09-02T20:41:57.146Z,18.10
2018-09-02T20:44:26.203Z,18.10
2018-09-02T20:46:56.124Z,18.00
2018-09-02T20:49:25.462Z,18.00
2018-09-02T20:51:54.487Z,18.10
2018-09-02T20:54:23.829Z,18.00
2018-09-02T20:56:53.188Z,18.00
2018-09-02T20:59:22.525Z,18.00
2018-09-02T21:01:51.857Z,18.00
2018-09-02T21:04:21.223Z,18.00
2018-09-02T21:06:50.534Z,17.90
2018-09-02T21:09:19.712Z,17.90
2018-09-02T21:11:49.034Z,17.90
2018-09-02T21:14:18.393Z,17.80
2018-09-02T21:16:47.740Z,17.80
2018-09-02T21:19:16.810Z,17.90
2018-09-02T21:21:46.105Z,17.80
2018-09-02T21:24:15.204Z,17.90
2018-09-02T21:26:44.908Z,17.80
2018-09-02T21:29:14.200Z,17.80
2018-09-02T21:31:43.653Z,17.70
2018-09-02T21:34:13.224Z,17.70
2018-09-02T21:36:42.740Z,17.70
2018-09-02T21:39:11.744Z,17.70
2018-09-02T21:41:41.007Z,17.70
2018-09-02T21:44:10.087Z,17.70
2018-09-02T21:46:39.439Z,17.60
2018-09-02T21:49:08.770Z,17.60
2018-09-02T21:51:38.170Z,17.50
2018-09-02T21:54:07.598Z,17.60
2018-09-02T21:56:36.956Z,17.60
2018-09-02T21:59:06.269Z,17.60
2018-09-02T22:01:35.611Z,17.60
2018-09-02T22:04:04.914Z,17.60
2018-09-02T22:06:34.269Z,17.50
2018-09-02T22:09:09.690Z,17.50
2018-09-02T22:11:39.033Z,17.50
2018-09-02T22:14:08.175Z,17.50
2018-09-02T22:16:37.592Z,17.50
2018-09-02T22:19:06.801Z,17.50
2018-09-02T22:21:36.193Z,17.50
2018-09-02T22:24:05.663Z,17.60
2018-09-02T22:26:35.109Z,17.50
2018-09-02T22:29:04.740Z,17.50
2018-09-02T22:31:34.037Z,17.50
2018-09-02T22:34:03.381Z,17.50
2018-09-02T22:36:32.760Z,17.50
2018-09-02T22:39:02.053Z,17.50
2018-09-02T22:41:31.370Z,17.50
2018-09-02T22:44:00.731Z,17.50
2018-09-02T22:46:30.065Z,17.50
2018-09-02T22:48:59.418Z,17.50
2018-09-02T22:51:28.511Z,17.50
2018-09-02T22:53:57.907Z,17.50
2018-09-02T22:56:27.245Z,17.50
2018-09-02T22:58:56.281Z,17.50
2018-09-02T23:01:25.588Z,17.50
2018-09-02T23:03:55.005Z,17.40
2018-09-02T23:06:24.094Z,17.50
2018-09-02T23:08:53.381Z,17.40
2018-09-02T23:11:22.722Z,17.40
2018-09-02T23:13:52.040Z,17.40
2018-09-02T23:16:21.126Z,17.40
2018-09-02T23:18:50.176Z,17.60
2018-09-02T23:21:19.584Z,17.60
2018-09-02T23:23:48.829Z,17.50
2018-09-02T23:26:18.085Z,17.40
2018-09-02T23:28:47.558Z,17.20
2018-09-02T23:31:16.827Z,17.20
2018-09-02T23:33:45.835Z,17.30
2018-09-02T23:36:15.193Z,17.20
2018-09-02T23:38:44.977Z,17.30
2018-09-02T23:41:14.318Z,17.30
2018-09-02T23:43:43.726Z,17.30
2018-09-02T23:46:13.112Z,17.30
2018-09-02T23:48:42.413Z,17.30
2018-09-02T23:51:11.490Z,17.30
2018-09-02T23:56:37.808Z,17.30
2018-09-02T23:59:07.180Z,17.20
